Time;durP1;ratioP1;P1;durP2;ratioP2;P2;SDS_P1;SDS_P2;PMS_P1;PMS_P2;Temp;Humidity;BMP_temperature;BMP_pressure;BME280_temperature;BME280_humidity;BME280_pressure;Samples;Min_cycle;Max_cycle;Signal;HPM_P1;HPM_P2
2021/12/08 00:01:51;;;;;;;5.95;2.60;;;3.80;99.90;;;;;;4993223;28;20038;-74
2021/12/08 00:04:17;;;;;;;9.27;2.95;;;3.80;99.90;;;;;;4977096;28;20076;-74
2021/12/08 00:06:42;;;;;;;9.70;3.30;;;3.80;99.90;;;;;;4993436;28;20064;-74
2021/12/08 00:09:26;;;;;;;11.68;3.25;;;3.80;99.90;;;;;;4993102;28;20537;-74
2021/12/08 00:14:37;;;;;;;9.95;3.13;;;3.80;99.90;;;;;;4993342;28;20046;-74
2021/12/08 00:17:03;;;;;;;9.32;3.58;;;3.80;99.90;;;;;;4993003;28;20060;-74
2021/12/08 00:19:29;;;;;;;7.43;2.80;;;3.80;99.90;;;;;;4992948;28;20050;-74
2021/12/08 00:21:55;;;;;;;8.77;3.08;;;3.80;99.90;;;;;;4992607;28;20034;-73
2021/12/08 00:24:21;;;;;;;8.80;3.28;;;3.80;99.90;;;;;;4993139;28;20129;-73
2021/12/08 00:26:47;;;;;;;12.02;3.20;;;3.80;99.90;;;;;;4992905;28;20568;-73
2021/12/08 00:29:12;;;;;;;9.30;3.17;;;3.80;99.90;;;;;;4992721;28;20081;-73
2021/12/08 00:31:40;;;;;;;11.55;3.80;;;3.90;99.90;;;;;;4976614;28;20041;-73
2021/12/08 00:34:05;;;;;;;9.57;3.40;;;3.80;99.90;;;;;;4993006;28;20034;-73
2021/12/08 00:36:40;;;;;;;9.27;3.05;;;3.80;99.90;;;;;;4976801;28;20487;-73
2021/12/08 00:39:06;;;;;;;10.90;3.70;;;3.80;99.90;;;;;;4992990;28;20051;-73
2021/12/08 00:41:32;;;;;;;6.55;3.20;;;3.80;99.90;;;;;;4992588;28;20526;-73
2021/12/08 00:43:58;;;;;;;10.02;3.33;;;3.80;99.90;;;;;;4976482;28;20067;-73
2021/12/08 00:46:23;;;;;;;9.25;3.38;;;3.80;99.90;;;;;;4976506;28;20069;-74
2021/12/08 00:48:50;;;;;;;9.40;3.03;;;3.80;99.90;;;;;;4976475;28;20046;-74
2021/12/08 00:51:17;;;;;;;8.73;3.28;;;3.80;99.90;;;;;;4992523;28;20039;-74
2021/12/08 00:53:44;;;;;;;8.00;3.13;;;3.80;99.90;;;;;;4976393;28;20042;-74
2021/12/08 00:56:10;;;;;;;9.30;3.03;;;3.80;99.90;;;;;;4992455;28;20480;-74
2021/12/08 00:58:35;;;;;;;6.80;3.00;;;3.80;99.90;;;;;;4992479;28;20081;-74
2021/12/08 01:01:02;;;;;;;6.95;3.30;;;3.80;99.90;;;;;;4976290;28;20042;-74
2021/12/08 01:03:28;;;;;;;6.13;3.10;;;3.80;99.90;;;;;;4976525;28;20137;-74
2021/12/08 01:05:56;;;;;;;10.50;4.05;;;3.80;99.90;;;;;;4992693;28;20468;-74
2021/12/08 01:08:25;;;;;;;9.15;3.13;;;3.90;99.90;;;;;;4992396;28;20049;-74
2021/12/08 01:10:53;;;;;;;7.05;3.00;;;3.90;99.90;;;;;;4992052;28;20053;-74
2021/12/08 01:13:20;;;;;;;11.35;3.00;;;3.90;99.90;;;;;;4992457;28;20057;-74
2021/12/08 01:15:49;;;;;;;9.35;3.05;;;3.90;99.90;;;;;;4976183;28;20042;-74
2021/12/08 01:18:16;;;;;;;10.57;3.20;;;3.90;99.90;;;;;;4993210;28;20077;-74
2021/12/08 01:20:42;;;;;;;11.18;4.03;;;3.90;99.90;;;;;;4976046;28;20045;-74
2021/12/08 01:23:08;;;;;;;8.57;3.35;;;3.90;99.90;;;;;;4976218;28;20038;-74
2021/12/08 01:25:34;;;;;;;11.85;3.80;;;3.90;99.90;;;;;;4992505;28;20088;-74
2021/12/08 01:28:00;;;;;;;8.20;3.28;;;4.00;99.90;;;;;;4976023;28;20502;-74
2021/12/08 01:30:26;;;;;;;8.52;3.08;;;4.00;99.90;;;;;;4992171;28;20042;-74
2021/12/08 01:32:53;;;;;;;10.18;3.35;;;4.00;99.90;;;;;;4992137;28;20599;-74
2021/12/08 01:35:20;;;;;;;7.20;2.92;;;4.00;99.90;;;;;;4994337;28;20515;-74
2021/12/08 01:37:45;;;;;;;7.78;3.03;;;4.00;99.90;;;;;;4995982;28;20060;-74
2021/12/08 01:40:13;;;;;;;8.30;3.45;;;4.00;99.90;;;;;;4996171;28;20129;-74
2021/12/08 01:42:46;;;;;;;9.45;3.15;;;4.00;99.90;;;;;;4995774;28;20053;-74
2021/12/08 01:47:58;;;;;;;8.80;3.08;;;4.00;99.90;;;;;;4995726;28;20046;-74
2021/12/08 01:50:25;;;;;;;9.88;2.97;;;4.10;99.90;;;;;;4979420;28;20053;-74
2021/12/08 01:52:50;;;;;;;8.00;3.05;;;4.10;99.90;;;;;;4995580;28;20044;-74
2021/12/08 01:55:16;;;;;;;7.38;3.22;;;4.10;99.90;;;;;;4979426;28;20042;-74
2021/12/08 01:57:43;;;;;;;8.73;2.80;;;4.10;99.90;;;;;;4979602;28;20042;-74
2021/12/08 02:00:25;;;;;;;7.00;2.40;;;4.10;99.90;;;;;;4995487;28;20525;-74
2021/12/08 02:02:51;;;;;;;7.90;2.83;;;4.10;99.90;;;;;;4979233;28;20169;-74
2021/12/08 02:05:17;;;;;;;6.07;2.78;;;4.10;99.90;;;;;;4995712;28;20128;-74
2021/12/08 02:07:43;;;;;;;7.38;3.10;;;4.10;99.90;;;;;;4995452;28;20038;-74
2021/12/08 02:10:10;;;;;;;9.65;3.47;;;4.10;99.90;;;;;;4979083;28;20503;-73
2021/12/08 02:12:39;;;;;;;10.35;3.10;;;4.20;99.90;;;;;;4995375;28;20061;-73
2021/12/08 02:15:10;;;;;;;10.20;3.22;;;4.10;99.90;;;;;;4979313;28;20035;-73
2021/12/08 02:17:37;;;;;;;7.22;2.75;;;4.20;99.90;;;;;;4995265;28;20088;-73
2021/12/08 02:20:09;;;;;;;5.88;2.90;;;4.10;99.90;;;;;;4995384;28;20549;-73
2021/12/08 02:22:35;;;;;;;8.35;2.85;;;4.10;99.90;;;;;;4978810;28;20042;-75
2021/12/08 02:25:01;;;;;;;6.20;2.90;;;4.10;99.90;;;;;;4995363;28;20046;-75
2021/12/08 02:27:27;;;;;;;7.93;3.10;;;4.10;99.90;;;;;;4995031;28;20585;-75
2021/12/08 02:30:02;;;;;;;10.60;3.45;;;4.10;99.90;;;;;;4994883;28;20048;-75
2021/12/08 02:46:45;;;;;;;11.00;3.22;;;4.10;99.90;;;;;;4994915;28;20039;-75
2021/12/08 02:48:58;;;;;;;7.25;3.40;;;4.10;99.90;;;;;;4994586;28;20050;-74
2021/12/08 02:51:24;;;;;;;9.48;3.20;;;4.10;99.90;;;;;;4978609;28;20154;-74
2021/12/08 02:53:50;;;;;;;7.75;3.58;;;4.10;99.90;;;;;;4994619;28;20038;-74
2021/12/08 02:56:16;;;;;;;9.57;3.50;;;4.10;99.90;;;;;;4978333;28;20034;-74
2021/12/08 02:58:43;;;;;;;9.02;3.40;;;4.10;99.90;;;;;;4978266;28;20042;-74
2021/12/08 03:01:11;;;;;;;7.00;3.20;;;4.10;99.90;;;;;;4994385;28;20080;-74
2021/12/08 03:03:37;;;;;;;6.85;3.55;;;4.20;99.90;;;;;;4994483;28;20042;-74
2021/12/08 03:06:03;;;;;;;6.88;3.40;;;4.20;99.90;;;;;;4994307;28;20074;-74
2021/12/08 03:11:04;;;;;;;11.70;4.75;;;4.20;99.90;;;;;;5038051;23;20391;-74
2021/12/08 03:13:37;;;;;;;8.10;3.92;;;4.20;99.90;;;;;;4981272;28;20049;-75
2021/12/08 03:16:04;;;;;;;;;;;4.20;99.90;;;;;;4997841;28;20041;-75
2021/12/08 03:18:35;;;;;;;6.13;3.60;;;4.20;99.90;;;;;;4981069;28;20286;-75
2021/12/08 03:21:03;;;;;;;8.30;4.07;;;4.20;99.90;;;;;;4997240;28;20460;-75
2021/12/08 03:23:35;;;;;;;9.63;4.00;;;4.30;99.90;;;;;;4998021;28;20041;-74
2021/12/08 03:26:03;;;;;;;10.23;3.77;;;4.30;99.90;;;;;;4981111;28;20042;-74
2021/12/08 03:28:34;;;;;;;11.00;4.50;;;4.30;99.90;;;;;;4981721;28;20320;-74
2021/12/08 03:31:06;;;;;;;10.52;3.92;;;4.30;99.90;;;;;;4980834;28;20034;-74
2021/12/08 03:33:32;;;;;;;9.10;3.92;;;4.30;99.90;;;;;;4997427;28;20080;-74
2021/12/08 03:35:58;;;;;;;8.80;4.15;;;4.40;99.90;;;;;;4997360;28;20068;-74
2021/12/08 03:38:25;;;;;;;7.50;4.40;;;4.40;99.90;;;;;;4980778;28;20034;-74
2021/12/08 03:40:52;;;;;;;7.55;4.32;;;4.40;99.90;;;;;;4996895;28;20088;-74
2021/12/08 03:43:18;;;;;;;8.38;4.25;;;4.40;99.90;;;;;;4980981;28;20034;-74
2021/12/08 03:45:47;;;;;;;8.15;4.07;;;4.40;99.90;;;;;;4996982;28;20108;-74
2021/12/08 03:48:20;;;;;;;7.20;4.15;;;4.50;99.90;;;;;;4996783;28;20049;-74
2021/12/08 03:50:46;;;;;;;;;;;4.50;99.90;;;;;;4997027;28;20037;-74
2021/12/08 03:53:15;;;;;;;10.82;5.32;;;4.50;99.90;;;;;;4980714;28;19962;-74
2021/12/08 03:55:44;;;;;;;9.65;4.93;;;4.50;99.90;;;;;;4980513;28;20551;-74
2021/12/08 03:58:10;;;;;;;8.75;4.80;;;4.50;99.90;;;;;;4996023;28;20121;-74
2021/12/08 04:00:38;;;;;;;11.45;4.93;;;4.50;99.90;;;;;;4980276;28;20041;-74
2021/12/08 04:03:05;;;;;;;7.25;5.57;;;4.50;99.90;;;;;;4980650;28;20053;-74
2021/12/08 04:05:46;;;;;;;9.32;5.10;;;4.50;99.90;;;;;;4996462;28;20505;-74
2021/12/08 04:08:19;;;;;;;9.00;5.85;;;4.60;99.90;;;;;;4980268;28;20520;-74
2021/12/08 04:10:47;;;;;;;10.90;5.13;;;4.70;99.90;;;;;;4996192;28;20044;-74
2021/12/08 04:13:13;;;;;;;10.13;6.85;;;4.70;99.90;;;;;;4996361;28;20080;-74
2021/12/08 04:15:39;;;;;;;11.68;6.35;;;4.70;99.90;;;;;;4996314;28;20437;-74
2021/12/08 04:18:05;;;;;;;9.57;6.13;;;4.70;99.90;;;;;;4981114;28;20046;-74
2021/12/08 04:20:41;;;;;;;10.38;6.38;;;4.80;99.90;;;;;;4996124;28;20038;-74
2021/12/08 04:23:15;;;;;;;10.20;5.68;;;4.80;99.90;;;;;;5012801;28;20041;-74
2021/12/08 04:25:45;;;;;;;11.38;6.70;;;4.80;99.90;;;;;;4996294;28;20080;-74
2021/12/08 04:28:15;;;;;;;7.38;5.72;;;4.80;99.90;;;;;;4980039;28;20046;-74
2021/12/08 04:30:49;;;;;;;13.75;6.20;;;4.90;99.90;;;;;;4996084;28;20059;-74
2021/12/08 04:33:15;;;;;;;11.68;6.53;;;4.90;99.90;;;;;;4995993;28;20049;-74
2021/12/08 04:35:42;;;;;;;14.15;5.72;;;4.90;99.90;;;;;;4995963;28;20037;-74
2021/12/08 04:38:11;;;;;;;11.80;6.18;;;4.90;99.90;;;;;;4995952;28;20406;-74
2021/12/08 04:40:57;;;;;;;9.25;5.93;;;5.00;99.90;;;;;;4979677;28;20084;-74
2021/12/08 04:43:40;;;;;;;9.93;5.90;;;5.00;99.90;;;;;;4995972;28;20077;-74
2021/12/08 05:07:36;;;;;;;8.07;6.00;;;5.10;99.90;;;;;;4991359;28;20049;-73
2021/12/08 05:10:09;;;;;;;10.35;5.45;;;5.10;99.90;;;;;;4982801;28;20492;-73
2021/12/08 05:12:36;;;;;;;10.48;5.75;;;5.10;99.90;;;;;;4999728;28;20049;-73
2021/12/08 05:15:24;;;;;;;11.38;5.95;;;5.10;99.90;;;;;;4999871;28;20045;-73
2021/12/08 05:18:02;;;;;;;12.15;5.88;;;5.10;99.90;;;;;;4999666;28;20077;-74
2021/12/08 05:20:39;;;;;;;11.73;6.05;;;5.10;99.90;;;;;;4983395;28;20052;-75
2021/12/08 05:23:22;;;;;;;10.70;5.68;;;5.10;99.90;;;;;;4999534;28;20042;-75
2021/12/08 05:25:47;;;;;;;9.70;5.38;;;5.10;99.90;;;;;;4983314;28;20494;-75
2021/12/08 05:28:17;;;;;;;9.35;5.47;;;5.20;99.90;;;;;;4999655;28;20056;-75
2021/12/08 05:30:59;;;;;;;8.73;5.35;;;5.20;99.90;;;;;;4999185;28;20048;-75
2021/12/08 05:33:27;;;;;;;12.73;5.27;;;5.20;99.90;;;;;;4983119;28;20042;-75
2021/12/08 05:35:53;;;;;;;8.73;5.72;;;5.20;99.90;;;;;;4999528;28;20042;-75
2021/12/08 05:38:19;;;;;;;8.82;5.40;;;5.30;99.90;;;;;;4999182;28;20042;-75
2021/12/08 05:41:00;;;;;;;9.45;5.55;;;5.30;99.90;;;;;;4999272;28;20494;-75
2021/12/08 05:43:26;;;;;;;10.65;5.90;;;5.30;99.90;;;;;;4982983;28;20038;-75
2021/12/08 05:45:53;;;;;;;7.93;5.60;;;5.30;99.90;;;;;;4982943;28;20037;-75
2021/12/08 05:48:20;;;;;;;9.02;5.60;;;5.30;99.90;;;;;;4983097;28;20053;-75
2021/12/08 05:50:56;;;;;;;10.77;5.18;;;5.30;99.90;;;;;;4998831;28;20088;-75
2021/12/08 05:53:23;;;;;;;9.65;5.32;;;5.30;99.90;;;;;;4982770;28;20453;-75
2021/12/08 05:55:49;;;;;;;7.35;5.22;;;5.30;99.90;;;;;;4999190;28;20077;-75
2021/12/08 05:58:17;;;;;;;14.98;6.57;;;5.30;99.90;;;;;;4998851;28;20044;-75
2021/12/08 06:00:54;;;;;;;8.68;5.50;;;5.30;99.90;;;;;;4982430;28;20046;-75
2021/12/08 06:03:20;;;;;;;8.25;5.40;;;5.30;99.90;;;;;;4998884;28;20037;-75
2021/12/08 06:05:49;;;;;;;12.57;5.32;;;5.20;99.90;;;;;;4982473;28;20145;-75
2021/12/08 06:08:15;;;;;;;9.52;5.63;;;5.20;99.90;;;;;;4998609;28;20133;-75
2021/12/08 06:10:41;;;;;;;7.97;5.15;;;5.20;99.90;;;;;;4982136;28;20048;-75
2021/12/08 06:13:10;;;;;;;10.85;5.75;;;5.20;99.90;;;;;;4998811;28;20434;-75
2021/12/08 06:15:37;;;;;;;9.27;5.40;;;5.20;99.90;;;;;;4982562;28;20462;-75
2021/12/08 06:18:06;;;;;;;9.77;5.60;;;5.10;99.90;;;;;;4982296;28;20038;-75
2021/12/08 06:20:32;;;;;;;9.18;5.35;;;5.10;99.90;;;;;;4997784;28;20041;-75
2021/12/08 06:22:58;;;;;;;8.50;5.15;;;5.10;99.90;;;;;;4998372;28;20084;-75
2021/12/08 06:25:25;;;;;;;9.48;5.25;;;5.10;99.90;;;;;;4998309;28;20125;-75
2021/12/08 06:27:51;;;;;;;8.60;5.07;;;5.10;99.90;;;;;;4998560;28;20041;-74
2021/12/08 06:30:21;;;;;;;11.07;5.43;;;5.00;99.90;;;;;;4998081;28;20405;-74
2021/12/08 06:32:46;;;;;;;11.18;4.55;;;5.10;99.90;;;;;;4982498;28;20076;-74
2021/12/08 06:35:35;;;;;;;8.68;5.10;;;5.10;99.90;;;;;;4998468;28;20073;-74
2021/12/08 06:38:01;;;;;;;10.23;4.75;;;5.00;99.90;;;;;;4998226;28;20464;-74
2021/12/08 06:40:41;;;;;;;9.30;4.93;;;5.00;99.90;;;;;;4981771;28;20128;-74
2021/12/08 06:43:10;;;;;;;8.35;4.68;;;5.00;99.90;;;;;;4998323;28;20037;-74
2021/12/08 06:45:41;;;;;;;12.75;4.43;;;5.00;99.90;;;;;;4981799;28;20081;-74
2021/12/08 06:48:12;;;;;;;12.02;4.50;;;5.00;99.90;;;;;;4997861;28;20049;-74
2021/12/08 06:50:46;;;;;;;10.15;4.18;;;5.00;99.90;;;;;;4997772;28;20091;-74
2021/12/08 06:53:12;;;;;;;9.85;4.20;;;5.00;99.90;;;;;;4981863;28;20088;-74
2021/12/08 06:55:49;;;;;;;7.05;3.92;;;5.00;99.90;;;;;;4998140;28;20508;-74
2021/12/08 06:58:20;;;;;;;6.93;3.83;;;4.90;99.90;;;;;;4998037;28;20037;-74
2021/12/08 07:03:48;;;;;;;11.70;4.25;;;5.00;99.90;;;;;;4997652;28;20058;-74
2021/12/08 07:06:42;;;;;;;8.35;3.63;;;5.00;99.90;;;;;;4997643;28;20049;-74
2021/12/08 07:09:25;;;;;;;10.65;3.75;;;5.00;99.90;;;;;;4997402;28;20464;-74
2021/12/08 07:11:53;;;;;;;9.90;3.75;;;5.00;99.90;;;;;;4997608;28;20046;-73
2021/12/08 07:14:22;;;;;;;8.60;3.28;;;5.00;99.90;;;;;;4997626;28;20077;-74
2021/12/08 07:16:51;;;;;;;10.27;3.70;;;5.00;99.90;;;;;;4997420;28;20038;-74
2021/12/08 07:19:26;;;;;;;6.13;2.95;;;5.00;99.90;;;;;;4981126;28;20038;-74
2021/12/08 07:21:54;;;;;;;8.85;3.30;;;5.00;99.90;;;;;;4981546;28;20140;-74
2021/12/08 07:24:28;;;;;;;9.43;2.88;;;5.00;99.90;;;;;;4997274;28;20044;-74
2021/12/08 07:27:01;;;;;;;8.10;2.80;;;5.00;99.90;;;;;;4997197;28;20045;-74
2021/12/08 07:29:33;;;;;;;8.35;2.58;;;5.00;99.90;;;;;;4997038;28;20077;-74
2021/12/08 07:32:17;;;;;;;7.88;2.20;;;5.00;99.90;;;;;;4980078;28;20068;-74
2021/12/08 07:34:43;;;;;;;8.38;2.67;;;5.10;99.90;;;;;;4980908;28;20045;-74
2021/12/08 07:37:19;;;;;;;9.20;2.88;;;5.10;99.90;;;;;;4997259;28;20046;-74
2021/12/08 07:39:49;;;;;;;6.70;2.40;;;5.10;99.90;;;;;;4996834;28;20041;-74
2021/12/08 07:42:27;;;;;;;6.13;2.65;;;5.10;99.90;;;;;;4996915;28;20498;-74
2021/12/08 07:44:56;;;;;;;5.75;2.65;;;5.10;99.90;;;;;;4980692;28;20554;-75
2021/12/08 07:47:26;;;;;;;8.15;2.58;;;5.10;99.90;;;;;;4997066;28;20042;-75
2021/12/08 07:50:20;;;;;;;5.30;2.47;;;5.00;99.90;;;;;;4980407;28;20065;-76
2021/12/08 07:52:47;;;;;;;;;;;5.10;99.90;;;;;;4981245;28;20099;-75
2021/12/08 07:55:21;;;;;;;9.38;2.53;;;5.00;99.90;;;;;;4996660;28;19922;-74
2021/12/08 07:57:47;;;;;;;;;;;5.00;99.90;;;;;;4996950;28;20521;-74
2021/12/08 08:00:30;;;;;;;7.38;3.45;;;5.00;99.90;;;;;;4980439;28;19917;-75
2021/12/08 08:02:56;;;;;;;9.55;2.63;;;5.00;99.90;;;;;;4996660;28;20046;-75
2021/12/08 08:05:27;;;;;;;10.07;2.78;;;5.00;99.90;;;;;;4980223;28;20038;-75
2021/12/08 08:07:56;;;;;;;10.10;2.63;;;5.00;99.90;;;;;;4981078;28;20041;-75
2021/12/08 08:10:22;;;;;;;11.05;3.15;;;5.10;99.90;;;;;;4979947;28;20045;-75
2021/12/08 08:12:51;;;;;;;7.78;2.08;;;5.10;99.90;;;;;;4996354;28;20046;-74
2021/12/08 08:15:22;;;;;;;13.18;2.58;;;5.10;99.90;;;;;;4980289;28;20121;-74
2021/12/08 08:17:51;;;;;;;11.23;2.40;;;5.10;99.90;;;;;;4996335;28;20037;-75
2021/12/08 08:20:31;;;;;;;10.30;2.40;;;5.10;99.90;;;;;;4996383;28;20520;-75
2021/12/08 08:22:59;;;;;;;10.27;2.30;;;5.20;99.90;;;;;;4980250;28;20068;-74
2021/12/08 08:25:34;;;;;;;9.13;2.45;;;5.10;99.90;;;;;;4996103;28;20046;-75
2021/12/08 08:28:02;;;;;;;10.93;2.53;;;5.20;99.90;;;;;;4996090;28;20046;-75
2021/12/08 08:30:38;;;;;;;13.13;2.45;;;5.20;99.90;;;;;;4995938;28;20038;-75
2021/12/08 08:33:04;;;;;;;9.32;2.05;;;5.20;99.90;;;;;;4996142;28;20046;-75
2021/12/08 08:35:49;;;;;;;9.20;2.15;;;5.20;99.90;;;;;;4996025;28;20037;-75
2021/12/08 08:38:29;;;;;;;8.73;2.08;;;5.20;99.90;;;;;;4995947;28;20038;-75
2021/12/08 08:41:00;;;;;;;7.72;1.80;;;5.20;99.90;;;;;;4995909;28;20417;-75
2021/12/08 08:43:26;;;;;;;8.10;2.17;;;5.20;99.90;;;;;;4979504;28;20034;-75
2021/12/08 08:46:02;;;;;;;10.75;2.08;;;5.20;99.90;;;;;;4996449;28;20107;-75
2021/12/08 08:48:33;;;;;;;11.65;2.30;;;5.20;99.90;;;;;;4979820;28;20048;-75
2021/12/08 08:51:23;;;;;;;7.80;1.83;;;5.30;99.90;;;;;;4979752;28;20040;-75
2021/12/08 08:53:51;;;;;;;8.25;2.15;;;5.30;99.90;;;;;;4979829;28;20125;-75
2021/12/08 08:56:57;;;;;;;13.27;2.70;;;5.40;99.90;;;;;;4995810;28;20049;-75
2021/12/08 08:59:33;;;;;;;9.85;2.22;;;5.40;99.90;;;;;;4983182;28;20104;-75
2021/12/08 09:02:04;;;;;;;12.32;2.42;;;5.50;99.90;;;;;;4979493;28;20034;-75
2021/12/08 09:04:38;;;;;;;10.45;2.42;;;5.50;99.90;;;;;;4979535;28;20129;-75
2021/12/08 09:07:09;;;;;;;11.68;3.20;;;5.60;99.90;;;;;;4995742;28;20088;-75
2021/12/08 09:09:40;;;;;;;9.60;2.00;;;5.60;99.90;;;;;;4979600;28;20038;-75
2021/12/08 09:12:20;;;;;;;12.05;2.53;;;5.60;99.90;;;;;;4995928;28;20577;-75
2021/12/08 09:14:57;;;;;;;9.25;2.13;;;5.60;99.90;;;;;;4995730;28;20124;-74
2021/12/08 09:17:28;;;;;;;12.25;2.60;;;5.60;99.90;;;;;;4995661;28;20034;-74
2021/12/08 09:20:05;;;;;;;10.32;1.83;;;5.60;99.90;;;;;;4995541;28;20094;-75
2021/12/08 09:25:10;;;;;;;12.80;2.30;;;5.60;99.90;;;;;;5034409;22;20462;-73
2021/12/08 09:27:40;;;;;;;10.90;2.17;;;5.60;99.90;;;;;;4995480;28;20029;-74
2021/12/08 09:30:14;;;;;;;13.02;2.25;;;5.60;99.90;;;;;;4979328;28;20073;-74
2021/12/08 09:32:54;;;;;;;9.70;2.58;;;5.60;99.90;;;;;;4995443;28;20076;-74
2021/12/08 09:35:28;;;;;;;9.60;2.30;;;5.60;99.90;;;;;;4979267;28;20401;-74
2021/12/08 09:38:00;;;;;;;11.00;2.70;;;5.60;99.90;;;;;;4979275;28;20413;-74
2021/12/08 09:40:33;;;;;;;11.05;2.63;;;5.60;99.90;;;;;;4995664;28;20046;-74
2021/12/08 09:43:07;;;;;;;9.77;2.40;;;5.60;99.90;;;;;;4979164;28;20093;-74
2021/12/08 09:45:43;;;;;;;11.63;2.40;;;5.60;99.90;;;;;;4995659;28;20111;-74
2021/12/08 09:48:10;;;;;;;13.05;2.80;;;5.60;99.90;;;;;;4995364;28;20049;-74
2021/12/08 09:50:36;;;;;;;11.60;2.75;;;5.70;99.90;;;;;;4995258;28;20085;-74
2021/12/08 09:53:05;;;;;;;11.38;2.38;;;5.80;99.90;;;;;;4979276;28;20045;-74
2021/12/08 09:55:30;;;;;;;10.02;2.40;;;5.90;99.90;;;;;;4980084;28;20552;-74
2021/12/08 09:57:57;;;;;;;10.80;3.25;;;5.90;99.90;;;;;;4998793;28;20042;-74
2021/12/08 10:00:37;;;;;;;11.68;2.72;;;5.90;99.90;;;;;;4998852;28;20037;-73
2021/12/08 10:03:05;;;;;;;12.13;2.50;;;5.90;99.90;;;;;;4998609;28;20053;-73
2021/12/08 10:05:33;;;;;;;10.52;3.00;;;5.90;99.90;;;;;;4999000;28;20046;-72
2021/12/08 10:08:00;;;;;;;12.60;2.53;;;5.90;99.90;;;;;;4982327;28;20042;-72
2021/12/08 10:10:27;;;;;;;13.27;2.47;;;5.90;99.90;;;;;;4998526;28;20046;-73
2021/12/08 10:12:52;;;;;;;13.48;3.00;;;6.00;99.90;;;;;;4998517;28;20046;-72
2021/12/08 10:15:20;;;;;;;11.70;2.58;;;6.10;99.90;;;;;;4998461;28;20041;-73
2021/12/08 10:17:47;;;;;;;8.88;2.40;;;6.10;99.90;;;;;;4998728;28;20042;-73
2021/12/08 10:20:19;;;;;;;10.27;2.55;;;6.20;99.90;;;;;;4982262;28;20037;-73
2021/12/08 10:23:07;;;;;;;13.00;3.03;;;6.20;99.90;;;;;;4998205;28;20050;-73
2021/12/08 10:25:36;;;;;;;14.65;2.58;;;6.30;99.90;;;;;;4998599;28;20042;-73
2021/12/08 10:28:25;;;;;;;12.90;2.55;;;6.30;99.90;;;;;;4998268;28;20092;-73
2021/12/08 10:31:14;;;;;;;8.75;2.67;;;6.30;99.90;;;;;;4998334;28;20465;-73
2021/12/08 10:34:29;;;;;;;7.95;2.45;;;6.30;99.90;;;;;;4998145;28;20046;-73
2021/12/08 10:36:46;;;;;;;11.20;2.60;;;6.30;99.90;;;;;;4992726;28;20042;-74
2021/12/08 10:39:17;;;;;;;9.85;2.50;;;6.30;99.90;;;;;;4998119;28;20129;-73
2021/12/08 10:41:55;;;;;;;9.18;2.20;;;6.40;99.90;;;;;;4998019;28;20490;-73
2021/12/08 10:44:26;;;;;;;15.20;2.33;;;6.40;99.80;;;;;;4997912;28;20569;-73
2021/12/08 10:46:57;;;;;;;7.88;1.92;;;6.40;99.70;;;;;;4998225;28;20045;-73
2021/12/08 10:54:42;;;;;;;8.07;2.13;;;6.50;99.20;;;;;;4997724;28;20494;-73
2021/12/08 10:57:34;;;;;;;8.55;2.15;;;6.50;99.30;;;;;;4997705;28;20121;-73
2021/12/08 11:00:03;;;;;;;11.25;2.30;;;6.60;99.00;;;;;;4997864;28;20100;-72
2021/12/08 11:02:36;;;;;;;14.13;3.22;;;6.60;99.00;;;;;;4997661;28;20048;-72
2021/12/08 11:05:04;;;;;;;10.77;2.80;;;6.80;99.10;;;;;;4997596;28;20041;-72
2021/12/08 11:07:29;;;;;;;9.95;2.10;;;6.90;98.90;;;;;;4981384;28;20041;-72
2021/12/08 11:09:55;;;;;;;11.30;2.53;;;7.00;98.50;;;;;;4997372;28;20115;-72
2021/12/08 11:12:21;;;;;;;11.57;2.22;;;7.10;98.30;;;;;;4997754;28;20042;-72
2021/12/08 11:14:50;;;;;;;8.68;2.30;;;7.00;98.00;;;;;;4981187;28;20080;-72
2021/12/08 11:17:29;;;;;;;11.07;2.45;;;6.90;97.90;;;;;;4997356;28;20489;-72
2021/12/08 11:20:16;;;;;;;11.25;2.55;;;6.80;97.90;;;;;;4997625;28;20405;-72
2021/12/08 11:22:46;;;;;;;10.85;2.15;;;6.70;98.00;;;;;;4980818;28;20081;-73
2021/12/08 11:25:35;;;;;;;15.63;2.53;;;6.60;98.40;;;;;;4997336;28;20129;-74
2021/12/08 11:28:29;;;;;;;9.70;2.20;;;6.60;98.60;;;;;;4997104;28;20052;-73
2021/12/08 11:30:54;;;;;;;8.13;2.28;;;6.50;98.60;;;;;;4997125;28;20053;-74
2021/12/08 11:33:23;;;;;;;9.82;2.10;;;6.50;98.90;;;;;;4997051;28;20034;-74
2021/12/08 11:36:09;;;;;;;9.35;2.25;;;6.50;98.90;;;;;;4981059;28;20401;-74
2021/12/08 11:38:36;;;;;;;7.38;1.90;;;6.50;98.70;;;;;;4980836;28;20505;-74
2021/12/08 11:41:09;;;;;;;8.02;1.85;;;6.40;98.80;;;;;;4980659;28;20046;-74
2021/12/08 11:43:35;;;;;;;13.05;2.50;;;6.40;98.80;;;;;;4997077;28;20046;-75
2021/12/08 11:46:14;;;;;;;10.02;2.53;;;6.40;99.00;;;;;;4996803;28;20195;-75
2021/12/08 11:48:52;;;;;;;10.50;3.50;;;6.40;98.90;;;;;;4997041;28;20065;-75
2021/12/08 11:51:18;;;;;;;14.77;3.95;;;6.40;99.00;;;;;;4980497;28;20508;-75
2021/12/08 11:53:44;;;;;;;16.73;3.47;;;6.30;99.00;;;;;;4996579;28;20053;-75
2021/12/08 11:56:34;;;;;;;9.60;2.28;;;6.30;98.90;;;;;;4980420;28;20034;-75
2021/12/08 11:59:00;;;;;;;12.15;2.20;;;6.30;98.50;;;;;;4996607;28;20513;-75
2021/12/08 12:01:26;;;;;;;7.35;1.92;;;6.30;98.80;;;;;;4996622;28;20095;-74
2021/12/08 12:03:52;;;;;;;11.60;2.55;;;6.20;98.90;;;;;;4997178;28;20042;-75
2021/12/08 12:06:17;;;;;;;9.70;2.50;;;6.20;98.90;;;;;;4996488;28;20116;-75
2021/12/08 12:08:46;;;;;;;9.63;2.53;;;6.20;98.90;;;;;;4996426;28;20048;-75
2021/12/08 12:11:13;;;;;;;9.25;2.22;;;6.20;98.90;;;;;;4996324;28;20060;-75
2021/12/08 12:13:38;;;;;;;10.52;2.53;;;6.20;98.70;;;;;;4996705;28;20069;-75
2021/12/08 12:16:04;;;;;;;10.48;2.30;;;6.10;98.80;;;;;;4996420;28;20072;-75
2021/12/08 12:18:32;;;;;;;14.30;3.13;;;6.20;98.60;;;;;;4995805;28;20092;-75
2021/12/08 12:21:25;;;;;;;7.05;2.70;;;6.20;98.70;;;;;;4996201;28;20457;-75
2021/12/08 12:24:14;;;;;;;9.10;2.30;;;6.20;98.80;;;;;;4979837;28;20037;-74
2021/12/08 12:26:42;;;;;;;7.68;2.13;;;6.20;98.70;;;;;;4996587;28;20042;-74
2021/12/08 12:29:18;;;;;;;13.23;2.83;;;6.20;98.90;;;;;;4996336;28;20041;-74
2021/12/08 12:32:02;;;;;;;13.88;2.92;;;6.20;98.70;;;;;;4996335;28;20127;-74
2021/12/08 12:34:37;;;;;;;8.90;2.30;;;6.20;98.50;;;;;;4995974;28;20414;-74
2021/12/08 12:37:17;;;;;;;8.43;2.20;;;6.10;98.60;;;;;;4995967;28;20069;-74
2021/12/08 12:39:48;;;;;;;12.65;2.92;;;6.20;98.40;;;;;;4996251;28;20069;-74
2021/12/08 12:42:16;;;;;;;11.55;2.10;;;6.10;98.40;;;;;;4979745;28;20037;-74
2021/12/08 12:44:45;;;;;;;12.50;3.17;;;6.10;98.50;;;;;;4995814;28;20049;-74
2021/12/08 12:47:19;;;;;;;11.50;2.20;;;6.10;98.50;;;;;;4995888;28;20054;-75
2021/12/08 12:49:49;;;;;;;17.02;2.70;;;6.10;98.50;;;;;;4995846;28;20050;-74
2021/12/08 12:52:17;;;;;;;8.50;2.10;;;6.10;98.50;;;;;;4995929;28;20042;-74
2021/12/08 12:54:44;;;;;;;9.27;2.38;;;6.10;98.50;;;;;;4995689;28;20490;-75
2021/12/08 12:57:10;;;;;;;13.35;2.25;;;6.10;98.40;;;;;;4995981;28;20084;-74
2021/12/08 12:59:52;;;;;;;13.05;2.60;;;6.20;98.50;;;;;;4995761;28;20112;-75
2021/12/08 13:02:27;;;;;;;10.77;2.58;;;6.20;98.30;;;;;;4979805;28;20127;-75
2021/12/08 13:05:10;;;;;;;9.55;1.88;;;6.20;98.30;;;;;;4995607;28;20042;-75
2021/12/08 13:07:42;;;;;;;9.63;2.00;;;6.20;98.20;;;;;;4995848;28;20064;-74
2021/12/08 13:10:13;;;;;;;6.30;1.73;;;6.30;98.20;;;;;;4979477;28;20049;-75
2021/12/08 13:12:42;;;;;;;8.27;2.03;;;6.30;98.30;;;;;;4995622;28;20125;-75
2021/12/08 13:15:19;;;;;;;8.70;2.10;;;6.30;98.30;;;;;;4995693;28;20045;-74
2021/12/08 13:18:03;;;;;;;8.65;2.13;;;6.30;98.20;;;;;;4995899;28;20037;-75
2021/12/08 13:20:35;;;;;;;8.80;2.53;;;6.30;98.20;;;;;;4995596;28;20042;-74
2021/12/08 13:23:03;;;;;;;13.85;2.38;;;6.20;98.20;;;;;;4995439;28;20088;-74
2021/12/08 13:25:40;;;;;;;8.07;2.28;;;6.20;98.30;;;;;;4995612;28;20414;-74
2021/12/08 13:28:33;;;;;;;9.43;2.30;;;6.20;98.40;;;;;;4995528;28;20045;-74
2021/12/08 13:31:10;;;;;;;11.77;2.92;;;6.20;98.10;;;;;;4980905;28;20042;-74
2021/12/08 13:33:38;;;;;;;10.32;2.40;;;6.20;98.30;;;;;;4983208;28;20037;-74
2021/12/08 13:36:22;;;;;;;8.10;2.05;;;6.20;98.20;;;;;;4999402;28;20123;-74
2021/12/08 13:38:54;;;;;;;10.70;2.22;;;6.20;98.10;;;;;;4999595;28;20061;-74
2021/12/08 13:41:21;;;;;;;12.15;2.17;;;6.20;98.10;;;;;;4999239;28;20042;-74
2021/12/08 13:43:50;;;;;;;8.40;2.20;;;6.30;98.20;;;;;;4999048;28;20038;-73
2021/12/08 13:46:46;;;;;;;7.75;2.17;;;6.30;98.20;;;;;;4999536;28;20571;-73
2021/12/08 13:49:26;;;;;;;6.35;2.10;;;6.60;97.90;;;;;;4997342;28;20053;-73
2021/12/08 13:52:27;;;;;;;9.98;2.30;;;6.90;97.30;;;;;;4999014;28;20088;-73
2021/12/08 13:54:56;;;;;;;9.20;2.10;;;7.10;96.50;;;;;;4998883;28;20049;-74
2021/12/08 13:57:38;;;;;;;8.40;2.10;;;6.90;96.50;;;;;;4998851;28;20037;-74
2021/12/08 14:00:12;;;;;;;12.80;2.42;;;6.90;96.30;;;;;;4982593;28;20490;-74
2021/12/08 14:02:37;;;;;;;8.98;2.58;;;6.90;96.30;;;;;;4998731;28;20057;-73
2021/12/08 14:05:22;;;;;;;9.20;2.42;;;6.70;96.40;;;;;;4998724;28;20042;-74
2021/12/08 14:08:02;;;;;;;10.02;2.10;;;6.60;96.50;;;;;;5015066;28;20042;-74
2021/12/08 14:10:34;;;;;;;7.50;2.05;;;6.50;96.70;;;;;;4998568;28;20129;-74